San Fernando, Trinidad and Tobago
Current Conditions -  °F | °C
As of 2:00 PM on Monday 26 Jan 2015 (Local Time) from TTPP Reporting Station
Scattered Clouds Scattered Clouds  
Wind Chill: 31°   Ceiling: Unl
Heat Index: 34°   Visibility: 6mi
Dew Point: 21°   Wind: 16mph
Humidity: 55%   Direction: 150°SSE
Pressure: 29.88"   Gusts: NA
Location:  10.25°N, 61.46°W
Report Text: TTPP 261800Z 15014KT 9999 SCT022 31/21 Q1012 NOSIG
Loading
Personal Weather Stations






























Interactive Weather Map New forecast layout! Learn more

10-Day Weather Forecast

Advertisements
Track Severe Weather on mobile